createdAt,value
2022-12-27T00:01:11.648Z,102565.61
2022-12-27T00:03:38.708Z,102567.95
2022-12-27T00:06:12.342Z,102562.90
2022-12-27T00:08:39.402Z,102571.12
2022-12-27T00:11:11.956Z,102566.11
2022-12-27T00:13:39.518Z,102564.32
2022-12-27T00:16:09.015Z,102563.99
2022-12-27T00:18:36.528Z,102562.65
2022-12-27T00:21:05.160Z,102568.52
2022-12-27T00:23:35.967Z,102569.38
2022-12-27T00:26:05.649Z,102569.10
2022-12-27T00:28:34.153Z,102568.41
2022-12-27T00:31:03.483Z,102570.28
2022-12-27T00:33:32.517Z,102566.38
2022-12-27T00:36:01.547Z,102576.13
2022-12-27T00:38:29.171Z,102573.44
2022-12-27T00:40:56.047Z,102575.07
2022-12-27T00:43:23.682Z,102575.91
2022-12-27T00:45:50.727Z,102574.05
2022-12-27T00:48:19.304Z,102571.89
2022-12-27T00:50:46.319Z,102575.63
2022-12-27T00:53:13.905Z,102570.95
2022-12-27T00:55:43.588Z,102567.41
2022-12-27T00:58:10.791Z,102562.15
2022-12-27T01:00:37.843Z,102556.85
2022-12-27T01:03:04.738Z,102557.71
2022-12-27T01:05:31.765Z,102551.65
2022-12-27T01:07:58.738Z,102550.54
2022-12-27T01:10:25.804Z,102548.80
2022-12-27T01:12:52.726Z,102548.20
2022-12-27T01:15:19.705Z,102544.81
2022-12-27T01:17:46.664Z,102545.87
2022-12-27T01:20:13.669Z,102551.02
2022-12-27T01:22:40.638Z,102544.91
2022-12-27T01:25:07.914Z,102545.07
2022-12-27T01:27:34.975Z,102543.27
2022-12-27T01:30:02.504Z,102545.23
2022-12-27T01:32:29.679Z,102546.17
2022-12-27T01:34:56.557Z,102547.07
2022-12-27T01:37:23.488Z,102544.14
2022-12-27T01:39:50.421Z,102541.86
2022-12-27T01:42:37.573Z,102541.20
2022-12-27T01:45:33.964Z,102541.73
2022-12-27T01:48:11.501Z,102547.89
2022-12-27T01:50:44.479Z,102546.34
2022-12-27T01:53:22.100Z,102545.86
2022-12-27T01:55:51.881Z,102550.46
2022-12-27T01:58:27.301Z,102548.40
2022-12-27T02:00:55.144Z,102548.92
2022-12-27T02:03:30.870Z,102546.33
2022-12-27T02:06:00.920Z,102545.38
2022-12-27T02:08:58.457Z,102544.66
2022-12-27T02:11:48.897Z,102537.98
2022-12-27T02:14:22.325Z,102535.86
2022-12-27T02:16:54.062Z,102533.25
2022-12-27T02:19:42.306Z,102531.17
2022-12-27T02:22:54.038Z,102530.70
2022-12-27T02:25:51.570Z,102523.48
2022-12-27T02:28:31.505Z,102518.65
2022-12-27T02:31:12.157Z,102513.61
2022-12-27T02:33:47.104Z,102515.20
2022-12-27T02:36:21.470Z,102523.66
2022-12-27T02:38:53.230Z,102521.27
2022-12-27T02:41:39.366Z,102522.98
2022-12-27T02:44:26.808Z,102522.01
2022-12-27T02:47:13.567Z,102519.92
2022-12-27T02:50:01.174Z,102522.82
2022-12-27T02:53:01.576Z,102519.89
2022-12-27T02:55:39.718Z,102519.08
2022-12-27T02:58:32.720Z,102517.73
2022-12-27T03:01:29.309Z,102523.15
2022-12-27T03:04:23.048Z,102515.62
2022-12-27T03:07:12.337Z,102506.82
2022-12-27T03:10:00.723Z,102504.02
2022-12-27T03:12:52.910Z,102499.09
2022-12-27T03:15:57.650Z,102498.24
2022-12-27T03:18:33.813Z,102491.26
2022-12-27T03:21:22.668Z,102491.63
2022-12-27T03:24:12.509Z,102492.16
2022-12-27T03:26:43.928Z,102490.28
2022-12-27T03:29:32.089Z,102492.08
2022-12-27T03:32:21.217Z,102494.15
2022-12-27T03:34:54.139Z,102492.92
2022-12-27T03:37:54.739Z,102488.77
2022-12-27T03:40:39.672Z,102491.02
2022-12-27T03:43:15.627Z,102489.26
2022-12-27T03:46:22.858Z,102486.39
2022-12-27T03:49:18.668Z,102490.23
2022-12-27T03:51:57.520Z,102493.99
2022-12-27T03:54:29.710Z,102494.75
2022-12-27T03:56:58.935Z,102493.15
2022-12-27T03:59:26.012Z,102496.02
2022-12-27T04:01:53.252Z,102493.41
2022-12-27T04:04:20.374Z,102489.13
2022-12-27T04:06:47.323Z,102489.50
2022-12-27T04:09:33.063Z,102489.05
2022-12-27T04:12:18.856Z,102488.48
2022-12-27T04:15:04.468Z,102490.48
2022-12-27T04:17:50.216Z,102487.66
2022-12-27T04:20:36.175Z,102488.56
2022-12-27T04:23:21.705Z,102493.90
2022-12-27T04:26:07.319Z,102490.73
2022-12-27T04:28:52.908Z,102490.27
2022-12-27T04:31:38.659Z,102498.87
2022-12-27T04:34:24.477Z,102502.14
2022-12-27T04:36:51.426Z,102505.48
2022-12-27T04:39:18.473Z,102507.11
2022-12-27T04:42:03.967Z,102508.86
2022-12-27T04:44:49.721Z,102506.67
2022-12-27T04:47:38.004Z,102507.52
2022-12-27T04:50:30.096Z,102507.20
2022-12-27T04:53:15.803Z,102508.42
2022-12-27T04:55:42.795Z,102511.15
2022-12-27T04:58:09.783Z,102513.80
2022-12-27T05:00:55.329Z,102515.39
2022-12-27T05:03:24.398Z,102515.55
2022-12-27T05:05:53.716Z,102514.00
2022-12-27T05:08:39.406Z,102514.77
2022-12-27T05:11:33.640Z,102515.89
2022-12-27T05:14:01.126Z,102514.13
2022-12-27T05:16:40.243Z,102515.27
2022-12-27T05:19:08.861Z,102517.24
2022-12-27T05:21:37.901Z,102519.36
2022-12-27T05:24:24.344Z,102517.56
2022-12-27T05:26:51.447Z,102519.36
2022-12-27T05:29:18.423Z,102522.00
2022-12-27T05:31:45.349Z,102526.81
2022-12-27T05:34:12.425Z,102529.90
2022-12-27T05:36:39.353Z,102527.14
2022-12-27T05:39:06.235Z,102532.80
2022-12-27T05:41:33.121Z,102528.48
2022-12-27T05:44:04.958Z,102528.77
2022-12-27T05:46:34.055Z,102525.31
2022-12-27T05:49:01.022Z,102525.48
2022-12-27T05:51:27.982Z,102530.05
2022-12-27T05:53:55.003Z,102528.82
2022-12-27T05:56:22.337Z,102535.00
2022-12-27T05:58:53.690Z,102529.39
2022-12-27T06:01:20.994Z,102525.89
2022-12-27T06:03:48.163Z,102526.42
2022-12-27T06:06:15.168Z,102524.30
2022-12-27T06:08:42.317Z,102521.37
2022-12-27T06:11:12.788Z,102523.38
2022-12-27T06:13:41.975Z,102527.70
2022-12-27T06:16:11.973Z,102530.35
2022-12-27T06:18:41.263Z,102531.08
2022-12-27T06:21:11.221Z,102526.20
2022-12-27T06:23:39.921Z,102519.32
2022-12-27T06:26:09.006Z,102517.73
2022-12-27T06:28:36.200Z,102511.58
2022-12-27T06:31:03.606Z,102508.53
2022-12-27T06:33:30.816Z,102507.17
2022-12-27T06:35:58.238Z,102511.05
2022-12-27T06:38:25.582Z,102517.41
2022-12-27T06:40:52.508Z,102518.80
2022-12-27T06:43:19.496Z,102518.27
2022-12-27T06:45:56.346Z,102513.48
2022-12-27T06:48:23.477Z,102511.70
2022-12-27T06:50:50.624Z,102515.25
2022-12-27T06:53:17.638Z,102519.27
2022-12-27T06:55:44.560Z,102526.37
2022-12-27T06:58:13.005Z,102529.58
2022-12-27T07:00:40.737Z,102539.75
2022-12-27T07:03:08.260Z,102552.63
2022-12-27T07:05:36.476Z,102562.58
2022-12-27T07:08:03.734Z,102560.60
2022-12-27T07:10:31.434Z,102551.34
2022-12-27T07:12:58.817Z,102547.61
2022-12-27T07:15:25.802Z,102549.52
2022-12-27T07:17:52.682Z,102553.94
2022-12-27T07:20:19.660Z,102557.06
2022-12-27T07:22:46.716Z,102561.73
2022-12-27T07:25:13.649Z,102562.73
2022-12-27T07:27:40.518Z,102564.84
2022-12-27T07:30:08.287Z,102569.21
2022-12-27T07:32:35.509Z,102578.39
2022-12-27T07:35:02.569Z,102576.30
2022-12-27T07:37:29.566Z,102573.85
2022-12-27T07:39:56.537Z,102573.40
2022-12-27T07:42:23.424Z,102571.35
2022-12-27T07:44:50.287Z,102577.36
2022-12-27T07:47:17.216Z,102577.64
2022-12-27T07:49:44.078Z,102573.91
2022-12-27T07:52:11.084Z,102579.19
2022-12-27T07:54:38.210Z,102577.42
2022-12-27T07:57:05.194Z,102577.86
2022-12-27T07:59:32.162Z,102573.98
2022-12-27T08:02:05.187Z,102576.33
2022-12-27T08:04:34.793Z,102584.61
2022-12-27T08:07:06.870Z,102589.64
2022-12-27T08:09:38.060Z,102588.70
2022-12-27T08:12:05.502Z,102590.73
2022-12-27T08:14:32.425Z,102593.13
2022-12-27T08:17:04.741Z,102588.09
2022-12-27T08:19:31.862Z,102590.13
2022-12-27T08:21:59.387Z,102589.03
2022-12-27T08:24:26.297Z,102597.05
2022-12-27T08:26:53.481Z,102594.33
2022-12-27T08:29:20.434Z,102595.45
2022-12-27T08:31:47.585Z,102593.80
2022-12-27T08:34:14.691Z,102594.95
2022-12-27T08:36:57.211Z,102601.42
2022-12-27T08:39:24.633Z,102602.65
2022-12-27T08:41:54.316Z,102605.16
2022-12-27T08:44:21.845Z,102602.58
2022-12-27T08:46:48.765Z,102604.27
2022-12-27T08:49:15.730Z,102601.23
2022-12-27T08:51:42.741Z,102603.11
2022-12-27T08:54:10.172Z,102608.41
2022-12-27T08:56:37.836Z,102608.88
2022-12-27T08:59:05.055Z,102612.51
2022-12-27T09:01:32.846Z,102611.66
2022-12-27T09:03:59.973Z,102615.05
2022-12-27T09:06:27.978Z,102615.55
2022-12-27T09:08:56.272Z,102616.84
2022-12-27T09:11:34.673Z,102616.80
2022-12-27T09:14:03.844Z,102618.70
2022-12-27T09:16:31.757Z,102615.74
2022-12-27T09:18:59.831Z,102614.14
2022-12-27T09:21:30.232Z,102612.83
2022-12-27T09:23:57.663Z,102613.90
2022-12-27T09:26:30.498Z,102614.70
2022-12-27T09:28:58.290Z,102613.80
2022-12-27T09:31:25.787Z,102614.59
2022-12-27T09:33:53.702Z,102610.56
2022-12-27T09:36:23.406Z,102610.34
2022-12-27T09:38:52.896Z,102606.80
2022-12-27T09:45:04.899Z,102600.01
2022-12-27T09:47:42.174Z,102603.09
2022-12-27T09:50:38.254Z,102599.85
2022-12-27T09:53:07.774Z,102591.17
2022-12-27T09:55:44.331Z,102594.08
2022-12-27T09:58:19.636Z,102589.06
2022-12-27T10:00:46.739Z,102586.98
2022-12-27T10:03:13.787Z,102580.04
2022-12-27T10:05:44.707Z,102581.21
2022-12-27T10:08:25.653Z,102572.23
2022-12-27T10:11:01.552Z,102567.48
2022-12-27T10:13:49.843Z,102564.30
2022-12-27T10:16:49.264Z,102562.62
2022-12-27T10:19:33.168Z,102559.04
2022-12-27T10:22:20.597Z,102556.41
2022-12-27T10:24:59.305Z,102555.83
2022-12-27T10:27:31.174Z,102548.32
2022-12-27T10:30:00.553Z,102546.20
2022-12-27T10:32:27.789Z,102540.65
2022-12-27T10:35:01.444Z,102538.46
2022-12-27T10:37:28.699Z,102531.59
2022-12-27T10:40:01.307Z,102524.65
2022-12-27T10:42:42.344Z,102514.38
2022-12-27T10:45:29.943Z,102510.52
2022-12-27T10:48:36.402Z,102503.91
2022-12-27T10:51:11.604Z,102493.80
2022-12-27T10:53:53.758Z,102492.04
2022-12-27T10:56:39.167Z,102489.41
2022-12-27T10:59:21.137Z,102486.27
2022-12-27T11:02:07.357Z,102480.86
2022-12-27T11:04:34.785Z,102479.88
2022-12-27T11:07:02.344Z,102483.09
2022-12-27T11:09:33.776Z,102481.95
2022-12-27T11:12:24.802Z,102475.43
2022-12-27T11:15:15.822Z,102475.27
2022-12-27T11:17:46.707Z,102473.79
2022-12-27T11:20:22.816Z,102472.36
2022-12-27T11:23:04.311Z,102471.67
2022-12-27T11:25:32.394Z,102472.96
2022-12-27T11:28:06.003Z,102472.80
2022-12-27T11:30:37.604Z,102474.02
2022-12-27T11:33:24.955Z,102468.35
2022-12-27T11:35:55.703Z,102460.89
2022-12-27T11:38:28.427Z,102457.78
2022-12-27T11:41:26.128Z,102457.86
2022-12-27T11:44:09.718Z,102451.30
2022-12-27T11:47:02.002Z,102451.98
2022-12-27T11:49:36.094Z,102448.09
2022-12-27T11:52:17.732Z,102442.91
2022-12-27T11:54:47.391Z,102443.35
2022-12-27T11:57:14.707Z,102437.64
2022-12-27T11:59:44.668Z,102437.27
2022-12-27T12:02:33.506Z,102434.52
2022-12-27T12:05:14.672Z,102429.39
2022-12-27T12:07:59.627Z,102422.75
2022-12-27T12:10:45.461Z,102415.16
2022-12-27T12:13:28.993Z,102420.54
2022-12-27T12:16:14.960Z,102421.23
2022-12-27T12:19:03.687Z,102415.23
2022-12-27T12:21:37.775Z,102402.61
2022-12-27T12:24:40.353Z,102404.89
2022-12-27T12:27:12.806Z,102397.73
2022-12-27T12:30:04.406Z,102397.58
2022-12-27T12:33:05.397Z,102394.91
2022-12-27T12:35:48.911Z,102389.58
2022-12-27T12:38:23.156Z,102391.58
2022-12-27T12:41:27.712Z,102391.80
2022-12-27T12:44:13.995Z,102389.52
2022-12-27T12:47:05.359Z,102390.48
2022-12-27T12:50:24.155Z,102385.20
2022-12-27T12:53:28.264Z,102385.56
2022-12-27T12:56:07.539Z,102380.80
2022-12-27T12:58:52.829Z,102384.25
2022-12-27T13:01:54.010Z,102385.23
2022-12-27T13:04:43.417Z,102386.67
2022-12-27T13:07:43.554Z,102379.09
2022-12-27T13:10:10.602Z,102385.69
2022-12-27T13:12:52.291Z,102378.66
2022-12-27T13:15:31.815Z,102382.58
2022-12-27T13:18:22.745Z,102382.73
2022-12-27T13:21:09.712Z,102381.27
2022-12-27T13:23:47.497Z,102383.33
2022-12-27T13:26:43.931Z,102384.30
2022-12-27T13:29:14.055Z,102380.30
2022-12-27T13:31:59.524Z,102381.10
2022-12-27T13:34:50.478Z,102380.87
2022-12-27T13:37:26.661Z,102380.44
2022-12-27T13:40:12.754Z,102381.16
2022-12-27T13:43:01.379Z,102386.36
2022-12-27T13:46:09.973Z,102380.30
2022-12-27T13:48:44.515Z,102381.25
2022-12-27T13:51:42.615Z,102385.04
2022-12-27T13:54:28.033Z,102385.31
2022-12-27T13:56:57.843Z,102381.44
2022-12-27T13:59:56.699Z,102385.32
2022-12-27T14:02:32.798Z,102387.73
2022-12-27T14:05:02.769Z,102389.90
2022-12-27T14:07:36.248Z,102386.34
2022-12-27T14:10:07.343Z,102381.35
2022-12-27T14:12:49.290Z,102382.56
2022-12-27T14:15:20.381Z,102383.95
2022-12-27T14:18:17.981Z,102381.67
2022-12-27T14:20:52.658Z,102384.15
2022-12-27T14:23:42.246Z,102380.34
2022-12-27T14:26:09.889Z,102381.80
2022-12-27T14:29:01.420Z,102377.64
2022-12-27T14:31:37.304Z,102376.95
2022-12-27T14:34:23.484Z,102378.09
2022-12-27T14:37:19.536Z,102376.52
2022-12-27T14:40:10.962Z,102375.27
2022-12-27T14:43:02.694Z,102375.54
2022-12-27T14:45:38.669Z,102377.83
2022-12-27T14:48:20.601Z,102376.77
2022-12-27T14:54:53.472Z,102374.76
2022-12-27T14:57:44.774Z,102374.70
2022-12-27T15:00:17.023Z,102375.45
2022-12-27T15:02:47.772Z,102371.00
2022-12-27T15:05:45.813Z,102369.25
2022-12-27T15:08:43.091Z,102367.18
2022-12-27T15:11:38.315Z,102369.14
2022-12-27T15:14:50.063Z,102368.56
2022-12-27T15:17:50.496Z,102370.73
2022-12-27T15:20:32.870Z,102369.35
2022-12-27T15:23:08.699Z,102372.69
2022-12-27T15:25:39.831Z,102374.60
2022-12-27T15:28:40.756Z,102370.77
2022-12-27T15:31:14.727Z,102374.45
2022-12-27T15:33:50.863Z,102375.15
2022-12-27T15:36:19.598Z,102378.23
2022-12-27T15:38:55.114Z,102375.55
2022-12-27T15:41:59.863Z,102382.06
2022-12-27T15:44:45.552Z,102380.80
2022-12-27T15:47:37.037Z,102381.11
2022-12-27T15:50:43.412Z,102380.90
2022-12-27T15:53:34.379Z,102379.94
2022-12-27T15:56:04.228Z,102386.43
2022-12-27T15:58:31.885Z,102388.58
2022-12-27T16:01:23.978Z,102386.94
2022-12-27T16:03:54.039Z,102398.07
2022-12-27T16:06:36.036Z,102397.16
2022-12-27T16:09:19.176Z,102399.60
2022-12-27T16:12:07.845Z,102396.27
2022-12-27T16:14:41.071Z,102396.95
2022-12-27T16:17:13.833Z,102398.11
2022-12-27T16:19:58.929Z,102399.16
2022-12-27T16:22:37.292Z,102403.26
2022-12-27T16:25:31.410Z,102400.55
2022-12-27T16:28:09.294Z,102404.84
2022-12-27T16:30:52.480Z,102409.41
2022-12-27T16:33:33.708Z,102410.41
2022-12-27T16:36:15.963Z,102417.89
2022-12-27T16:38:46.033Z,102416.30
2022-12-27T16:41:32.787Z,102418.19
2022-12-27T16:44:02.822Z,102420.10
2022-12-27T16:47:08.848Z,102421.48
2022-12-27T16:50:29.379Z,102423.08
2022-12-27T16:53:23.721Z,102424.71
2022-12-27T16:55:50.664Z,102435.95
2022-12-27T16:58:33.486Z,102432.56
2022-12-27T17:01:04.276Z,102433.63
2022-12-27T17:03:33.058Z,102434.99
2022-12-27T17:06:31.340Z,102436.64
2022-12-27T17:09:08.821Z,102435.90
2022-12-27T17:12:01.714Z,102439.20
2022-12-27T17:14:34.334Z,102434.64
2022-12-27T17:17:07.926Z,102437.45
2022-12-27T17:19:43.579Z,102439.04
2022-12-27T17:22:16.152Z,102441.23
2022-12-27T17:24:45.593Z,102439.58
2022-12-27T17:27:34.016Z,102444.10
2022-12-27T17:30:17.725Z,102442.83
2022-12-27T17:33:10.812Z,102443.27
2022-12-27T17:36:09.240Z,102448.16
2022-12-27T17:39:40.135Z,102448.23
2022-12-27T17:42:36.106Z,102448.94
2022-12-27T17:45:09.228Z,102451.96
2022-12-27T17:47:38.939Z,102453.73
2022-12-27T17:50:13.447Z,102453.73
2022-12-27T17:52:58.899Z,102455.39
2022-12-27T17:55:47.428Z,102454.00
2022-12-27T17:58:17.122Z,102451.11
2022-12-27T18:00:50.352Z,102450.74
2022-12-27T18:03:17.748Z,102450.38
2022-12-27T18:06:25.349Z,102451.10
2022-12-27T18:08:52.731Z,102448.98
2022-12-27T18:11:24.946Z,102449.30
2022-12-27T18:13:58.995Z,102448.88
2022-12-27T18:16:40.510Z,102448.38
2022-12-27T18:19:07.852Z,102450.30
2022-12-27T18:21:35.079Z,102452.63
2022-12-27T18:24:02.493Z,102454.66
2022-12-27T18:26:38.789Z,102452.21
2022-12-27T18:29:06.274Z,102452.85
2022-12-27T18:31:43.457Z,102457.67
2022-12-27T18:34:33.428Z,102455.27
2022-12-27T18:37:07.955Z,102456.54
2022-12-27T18:39:56.679Z,102458.50
2022-12-27T18:42:32.661Z,102456.16
2022-12-27T18:45:18.965Z,102450.66
2022-12-27T18:47:49.645Z,102450.24
2022-12-27T18:50:42.590Z,102450.49
2022-12-27T18:53:32.610Z,102450.78
2022-12-27T18:56:23.063Z,102451.41
2022-12-27T18:59:13.002Z,102456.08
2022-12-27T19:01:46.134Z,102454.29
2022-12-27T19:04:19.426Z,102456.77
2022-12-27T19:06:52.167Z,102459.21
2022-12-27T19:09:21.190Z,102461.04
2022-12-27T19:11:59.419Z,102462.88
2022-12-27T19:14:42.998Z,102465.25
2022-12-27T19:17:20.084Z,102468.55
2022-12-27T19:19:51.958Z,102466.95
2022-12-27T19:22:33.552Z,102465.05
2022-12-27T19:25:08.321Z,102466.84
2022-12-27T19:27:36.524Z,102465.46
2022-12-27T19:30:05.117Z,102462.38
2022-12-27T19:32:35.147Z,102463.92
2022-12-27T19:35:04.115Z,102462.43
2022-12-27T19:37:32.850Z,102466.38
2022-12-27T19:40:00.070Z,102468.11
2022-12-27T19:42:36.213Z,102468.30
2022-12-27T19:45:03.509Z,102472.95
2022-12-27T19:47:31.528Z,102472.61
2022-12-27T19:49:58.892Z,102472.37
2022-12-27T19:52:29.281Z,102471.22
2022-12-27T19:55:04.426Z,102469.86
2022-12-27T19:57:31.413Z,102470.36
2022-12-27T19:59:58.755Z,102465.47
2022-12-27T20:02:26.085Z,102464.34
2022-12-27T20:04:53.761Z,102464.34
2022-12-27T20:08:13.999Z,102468.51
2022-12-27T20:10:42.102Z,102469.27
2022-12-27T20:13:10.370Z,102474.23
2022-12-27T20:15:41.604Z,102470.55
2022-12-27T20:18:09.983Z,102471.05
2022-12-27T20:20:38.409Z,102474.81
2022-12-27T20:23:05.857Z,102473.91
2022-12-27T20:25:34.202Z,102471.55
2022-12-27T20:28:01.407Z,102472.48
2022-12-27T20:30:30.886Z,102472.41
2022-12-27T20:32:59.242Z,102468.92
2022-12-27T20:35:26.400Z,102467.51
2022-12-27T20:37:53.599Z,102469.55
2022-12-27T20:40:20.939Z,102465.61
2022-12-27T20:42:49.112Z,102460.92
2022-12-27T20:45:18.080Z,102463.61
2022-12-27T20:47:46.090Z,102460.73
2022-12-27T20:50:14.644Z,102460.79
2022-12-27T20:52:41.912Z,102464.92
2022-12-27T20:55:12.890Z,102467.00
2022-12-27T20:57:40.656Z,102462.52
2022-12-27T21:00:09.984Z,102463.27
2022-12-27T21:02:40.994Z,102466.84
2022-12-27T21:05:08.984Z,102469.42
2022-12-27T21:07:36.325Z,102473.83
2022-12-27T21:10:06.241Z,102476.91
2022-12-27T21:12:33.584Z,102477.97
2022-12-27T21:15:01.187Z,102481.58
2022-12-27T21:17:28.616Z,102480.20
2022-12-27T21:19:55.916Z,102478.20
2022-12-27T21:22:23.089Z,102478.20
2022-12-27T21:24:50.295Z,102475.39
2022-12-27T21:27:18.880Z,102477.07
2022-12-27T21:29:46.063Z,102473.76
2022-12-27T21:32:16.793Z,102475.22
2022-12-27T21:34:44.769Z,102475.35
2022-12-27T21:37:13.642Z,102472.38
2022-12-27T21:39:42.913Z,102479.16
2022-12-27T21:42:11.521Z,102479.39
2022-12-27T21:44:39.242Z,102481.05
2022-12-27T21:47:07.643Z,102478.61
2022-12-27T21:49:35.386Z,102476.82
2022-12-27T21:52:29.363Z,102473.83
2022-12-27T21:54:56.672Z,102475.71
2022-12-27T21:57:32.224Z,102471.80
2022-12-27T22:00:05.534Z,102473.83
2022-12-27T22:02:39.009Z,102470.70
2022-12-27T22:05:08.147Z,102466.57
2022-12-27T22:07:35.909Z,102472.67
2022-12-27T22:10:12.229Z,102471.89
2022-12-27T22:12:41.202Z,102472.22
2022-12-27T22:15:09.512Z,102472.75
2022-12-27T22:17:41.584Z,102473.23
2022-12-27T22:20:28.948Z,102473.15
2022-12-27T22:22:59.743Z,102471.55
2022-12-27T22:25:28.186Z,102469.02
2022-12-27T22:27:58.277Z,102467.77
2022-12-27T22:30:36.125Z,102471.23
2022-12-27T22:33:07.752Z,102471.27
2022-12-27T22:35:35.253Z,102472.38
2022-12-27T22:38:03.137Z,102473.61
2022-12-27T22:40:45.965Z,102470.27
2022-12-27T22:43:15.287Z,102466.88
2022-12-27T22:48:31.747Z,102466.30
2022-12-27T22:50:59.721Z,102463.73
2022-12-27T22:56:20.992Z,102457.54
2022-12-27T22:58:53.064Z,102457.88
2022-12-27T23:01:24.369Z,102454.48
2022-12-27T23:03:51.902Z,102452.52
2022-12-27T23:06:19.793Z,102448.94
2022-12-27T23:08:48.290Z,102447.07
2022-12-27T23:11:21.043Z,102444.95
2022-12-27T23:13:54.354Z,102445.15
